Fyrbyggaren — SDJP — position and weather

sailwx.info

Track history (hours):
 
Tides and Currents Weather Stations Pressure Air Temp Water Temp Dewpoint Dewpoint Depression Visibility Wind Speed Wind Dir Waves Ship Positions

Fyrbyggaren

Last reported at 2017-Jan-18 13:22 UTC. Time now 2017-Jan-18 14:07 UTC.
Position N 58°31' E 017°19'.

Length 42 m.

Type: Pollution control. MMSI: 265289000.

Date/timePositionNaut miles runAvg speedWind from/ knotsBaromVisibWave heightAir tempDewpointWater temp
2017-Jan-18 13:22N 58°31' E 017°19'98 4.2
2017-Jan-17 14:10N 59°31' E 019°50'4 4.7
2017-Jan-17 13:18N 59°31' E 019°42'810.2
2017-Jan-17 12:33N 59°31' E 019°27'3 3.5
2017-Jan-17 11:34N 59°34' E 019°22'6 5.6
2017-Jan-17 10:33N 59°30' E 019°14'6 6.1
2017-Jan-17 09:34N 59°35' E 019°07'3 2.9
2017-Jan-17 08:33N 59°32' E 019°04'3 2.5
2017-Jan-17 07:34N 59°31' E 019°00'3 2.9
2017-Jan-17 06:33N 59°28' E 018°60'2210.5
2017-Jan-17 04:27N 59°10' E 018°34'10 0.5
2017-Jan-16 09:17N 59°18' E 018°45'6 8.1
2017-Jan-16 08:33N 59°22' E 018°37'5 5.3
2017-Jan-16 07:33N 59°23' E 018°27'9 8.7
2017-Jan-16 06:34N 59°20' E 018°11'3 2.5
2017-Jan-16 05:33N 59°19' E 018°06'0 0.0
2017-Jan-16 04:33N 59°19' E 018°06'0 0.0
2017-Jan-16 03:33N 59°19' E 018°06'0 0.0
2017-Jan-16 02:33N 59°19' E 018°06'0 0.0
2017-Jan-16 01:33N 59°19' E 018°06'0 0.0
2017-Jan-16 00:33N 59°19' E 018°06'0 0.0
2017-Jan-15 23:33N 59°19' E 018°06'0 0.0
2017-Jan-15 22:33N 59°19' E 018°06'0 0.0
2017-Jan-15 21:30N 59°19' E 018°06'0 0.0
2017-Jan-15 20:32N 59°19' E 018°06'0 0.0
2017-Jan-15 19:32N 59°19' E 018°06'0 0.0
2017-Jan-15 18:32N 59°19' E 018°06'0 0.0
2017-Jan-15 16:20N 59°19' E 018°06'0 0.0
2017-Jan-15 15:29N 59°19' E 018°06'0 0.0
2017-Jan-15 14:32N 59°19' E 018°06'0 0.0
2017-Jan-15 13:32N 59°19' E 018°06'0 0.0
2017-Jan-15 12:32N 59°19' E 018°06'0 0.0
2017-Jan-15 11:32N 59°19' E 018°06'0 0.0
2017-Jan-15 10:32N 59°19' E 018°06'0 0.0
2017-Jan-15 09:32N 59°19' E 018°06'0 0.0
2017-Jan-15 08:32N 59°19' E 018°06'0 0.0
2017-Jan-15 07:32N 59°19' E 018°06'0 0.0
2017-Jan-15 06:29N 59°19' E 018°06'0 0.0
2017-Jan-15 05:29N 59°19' E 018°06'0 0.0
2017-Jan-15 04:32N 59°19' E 018°06'0 0.0
2017-Jan-15 03:32N 59°19' E 018°06'0 0.0
2017-Jan-15 02:32N 59°19' E 018°06'0 0.0
2017-Jan-15 01:32N 59°19' E 018°06'0 0.0
2017-Jan-15 00:32N 59°19' E 018°06'0 0.0
2017-Jan-14 23:32N 59°19' E 018°06'0 0.0
2017-Jan-14 22:32N 59°19' E 018°06'0 0.0
2017-Jan-14 21:32N 59°19' E 018°06'0 0.0
2017-Jan-14 20:32N 59°19' E 018°06'0 0.0
2017-Jan-14 19:32N 59°19' E 018°06'0 0.0
2017-Jan-14 16:23N 59°19' E 018°06'0 0.0
2017-Jan-14 15:32N 59°19' E 018°06'0 0.0
2017-Jan-14 14:32N 59°19' E 018°06'0 0.0
2017-Jan-14 13:32N 59°19' E 018°06'0 0.0
2017-Jan-14 12:32N 59°19' E 018°06'0 0.0
2017-Jan-14 11:32N 59°19' E 018°06'0 0.0
2017-Jan-14 10:32N 59°19' E 018°06'0 0.0
2017-Jan-14 09:32N 59°19' E 018°06'0 0.0
2017-Jan-14 08:32N 59°19' E 018°06'0 0.0
2017-Jan-14 07:32N 59°19' E 018°06'0 0.0
2017-Jan-14 06:32N 59°19' E 018°06'0 0.0
2017-Jan-14 05:32N 59°19' E 018°06'0 0.0
2017-Jan-14 04:32N 59°19' E 018°06'0 0.0
2017-Jan-14 03:32N 59°19' E 018°06'0 0.0
2017-Jan-13 23:32N 59°19' E 018°06'0 0.0
2017-Jan-13 22:32N 59°19' E 018°06'0 0.0
2017-Jan-13 21:32N 59°19' E 018°06'0 0.0
2017-Jan-13 20:29N 59°19' E 018°06'0 0.0
2017-Jan-13 19:17N 59°19' E 018°06'0 0.0
2017-Jan-13 18:26N 59°19' E 018°06'0 0.0
2017-Jan-13 17:26N 59°19' E 018°06'0 0.0
2017-Jan-13 16:14N 59°19' E 018°06'0 0.0
2017-Jan-13 15:29N 59°19' E 018°06'0 0.0
2017-Jan-13 14:32N 59°19' E 018°06'0 0.0
2017-Jan-13 13:32N 59°19' E 018°06'0 0.0
2017-Jan-13 12:32N 59°19' E 018°06'0 0.0
2017-Jan-13 11:32N 59°19' E 018°06'0 0.0
2017-Jan-13 10:32N 59°19' E 018°06'0 0.0
2017-Jan-13 09:32N 59°19' E 018°06'0 0.0
2017-Jan-13 08:29N 59°19' E 018°06'0 0.0
2017-Jan-13 07:32N 59°19' E 018°06'0 0.0
2017-Jan-13 06:29N 59°19' E 018°06'0 0.0
2017-Jan-13 05:29N 59°19' E 018°06'0 0.0
2017-Jan-13 04:29N 59°19' E 018°06'0 0.0
2017-Jan-13 03:32N 59°19' E 018°06'0 0.0
2017-Jan-13 02:32N 59°19' E 018°06'0 0.0
2017-Jan-13 01:32N 59°19' E 018°06'0 0.0
2017-Jan-13 00:32N 59°19' E 018°06'0 0.0
2017-Jan-12 23:32N 59°19' E 018°06'0 0.0
2017-Jan-12 22:32N 59°19' E 018°06'0 0.0
2017-Jan-12 21:32N 59°19' E 018°06'0 0.0
2017-Jan-12 20:32N 59°19' E 018°06'0 0.0
2017-Jan-12 19:32N 59°19' E 018°06'0 0.0
2017-Jan-12 16:05N 59°19' E 018°06'0 0.0
2017-Jan-12 15:32N 59°19' E 018°06'0 0.0
2017-Jan-12 14:29N 59°19' E 018°06'0 0.0
2017-Jan-12 13:32N 59°19' E 018°06'0 0.0
2017-Jan-12 12:32N 59°19' E 018°06'0 0.0
2017-Jan-12 11:32N 59°19' E 018°06'0 0.0
2017-Jan-12 10:32N 59°19' E 018°06'0 0.0
2017-Jan-12 09:32N 59°19' E 018°06'0 0.0
2017-Jan-12 08:29N 59°19' E 018°06'0 0.0
2017-Jan-12 07:29N 59°19' E 018°06'0 0.0
2017-Jan-12 06:32N 59°19' E 018°06'0 0.0
2017-Jan-12 05:32N 59°19' E 018°06'0 0.0
2017-Jan-12 04:32N 59°19' E 018°06'0 0.0
2017-Jan-12 03:32N 59°19' E 018°06'0 0.0
2017-Jan-12 02:32N 59°19' E 018°06'0 0.0
2017-Jan-12 01:32N 59°19' E 018°06'0 0.0
2017-Jan-12 00:32N 59°19' E 018°06'0 0.0
2017-Jan-11 23:32N 59°19' E 018°06'0 0.0
2017-Jan-11 22:31N 59°19' E 018°06'0 0.0
2017-Jan-11 21:31N 59°19' E 018°06'0 0.0
2017-Jan-11 20:31N 59°19' E 018°06'0 0.0
2017-Jan-11 19:31N 59°19' E 018°06'0 0.0
2017-Jan-11 16:31N 59°19' E 018°06'0 0.0
2017-Jan-11 15:31N 59°19' E 018°06'0 0.0
2017-Jan-11 14:31N 59°19' E 018°06'0 0.0
2017-Jan-11 13:31N 59°19' E 018°06'0 0.0
2017-Jan-11 12:22N 59°19' E 018°06'0 0.0
2017-Jan-11 11:31N 59°19' E 018°06'0 0.0
2017-Jan-11 10:31N 59°19' E 018°06'0 0.0
2017-Jan-11 09:31N 59°19' E 018°06'0 0.0
2017-Jan-11 08:28N 59°19' E 018°06'0 0.0
2017-Jan-11 07:31N 59°19' E 018°06'0 0.0
2017-Jan-11 06:31N 59°19' E 018°06'0 0.0
2017-Jan-11 05:31N 59°19' E 018°06'0 0.0
2017-Jan-11 04:28N 59°19' E 018°06'0 0.0
2017-Jan-11 03:31N 59°19' E 018°06'0 0.0
2017-Jan-11 02:28N 59°19' E 018°06'0 0.0
2017-Jan-11 01:28N 59°19' E 018°06'0 0.0
2017-Jan-11 00:31N 59°19' E 018°06'0 0.0
2017-Jan-10 23:31N 59°19' E 018°06'0 0.0
2017-Jan-10 22:31N 59°19' E 018°06'0 0.0
2017-Jan-10 21:31N 59°19' E 018°06'0 0.0
2017-Jan-10 20:31N 59°19' E 018°06'0 0.0
2017-Jan-10 19:31N 59°19' E 018°06'0 0.0
2017-Jan-10 17:28N 59°19' E 018°06'0 0.0
2017-Jan-10 16:13N 59°19' E 018°06'0 0.0
2017-Jan-10 15:31N 59°19' E 018°06'0 0.0
2017-Jan-10 14:31N 59°19' E 018°06'0 0.0
2017-Jan-10 13:28N 59°19' E 018°06'0 0.0
2017-Jan-10 12:31N 59°19' E 018°06'0 0.0
2017-Jan-10 11:31N 59°19' E 018°06'0 0.0
2017-Jan-10 10:31N 59°19' E 018°06'0 0.0
2017-Jan-10 09:31N 59°19' E 018°06'0 0.0
2017-Jan-10 08:31N 59°19' E 018°06'0 0.0
2017-Jan-10 07:31N 59°19' E 018°06'0 0.0
2017-Jan-10 06:31N 59°19' E 018°06'0 0.0
2017-Jan-10 05:31N 59°19' E 018°06'0 0.0
2017-Jan-10 04:31N 59°19' E 018°06'0 0.0
2017-Jan-10 03:28N 59°19' E 018°06'0 0.0
2017-Jan-10 02:31N 59°19' E 018°06'0 0.0
2017-Jan-10 01:31N 59°19' E 018°06'0 0.0
2017-Jan-10 00:31N 59°19' E 018°06'0 0.0
2017-Jan-09 23:31N 59°19' E 018°06'0 0.0
2017-Jan-09 22:31N 59°19' E 018°06'0 0.0
2017-Jan-09 21:31N 59°19' E 018°06'0 0.0
2017-Jan-09 20:31N 59°19' E 018°06'0 0.0
2017-Jan-09 19:31N 59°19' E 018°06'0 0.0
2017-Jan-09 15:28N 59°19' E 018°06'0 0.0
2017-Jan-09 14:31N 59°19' E 018°06'0 0.0
2017-Jan-09 13:31N 59°19' E 018°06'0 0.0
2017-Jan-09 12:31N 59°19' E 018°06'0 0.0
2017-Jan-09 11:31N 59°19' E 018°06'0 0.0
2017-Jan-09 10:31N 59°19' E 018°06'0 0.0
2017-Jan-09 09:31N 59°19' E 018°06'0 0.0
2017-Jan-09 08:31N 59°19' E 018°06'0 0.0
2017-Jan-09 07:28N 59°19' E 018°06'0 0.0
2017-Jan-09 06:31N 59°19' E 018°06'0 0.0
2017-Jan-09 05:31N 59°19' E 018°06'0 0.0
2017-Jan-09 04:31N 59°19' E 018°06'0 0.0
2017-Jan-09 03:31N 59°19' E 018°06'0 0.0
2017-Jan-09 02:31N 59°19' E 018°06'0 0.0
2017-Jan-09 01:31N 59°19' E 018°06'0 0.0
2017-Jan-09 00:31N 59°19' E 018°06'0 0.0
2017-Jan-08 23:31N 59°19' E 018°06'0 0.0
2017-Jan-08 22:31N 59°19' E 018°06'0 0.0
2017-Jan-08 21:31N 59°19' E 018°06'0 0.0
2017-Jan-08 20:31N 59°19' E 018°06'0 0.0
2017-Jan-08 19:31N 59°19' E 018°06'0 0.0
2017-Jan-08 16:04N 59°19' E 018°06'0 0.0
2017-Jan-08 15:28N 59°19' E 018°06'0 0.0
2017-Jan-08 14:28N 59°19' E 018°06'0 0.0
2017-Jan-08 13:31N 59°19' E 018°06'  
Track history (hours):
 
Tides and Currents Weather Stations Pressure Air Temp Water Temp Dewpoint Dewpoint Depression Visibility Wind Speed Wind Dir Waves Ship Positions

Fyrbyggaren

Last reported at 2017-Jan-18 13:22 UTC. Time now 2017-Jan-18 14:07 UTC.
Position N 58°31' E 017°19'.

Length 42 m.

Type: Pollution control. MMSI: 265289000.

Date/timePositionNaut miles runAvg speedWind from/ knotsBaromVisibWave heightAir tempDewpointWater temp
2017-Jan-18 13:22N 58°31' E 017°19'98 4.2
2017-Jan-17 14:10N 59°31' E 019°50'4 4.7
2017-Jan-17 13:18N 59°31' E 019°42'810.2
2017-Jan-17 12:33N 59°31' E 019°27'3 3.5
2017-Jan-17 11:34N 59°34' E 019°22'6 5.6
2017-Jan-17 10:33N 59°30' E 019°14'6 6.1
2017-Jan-17 09:34N 59°35' E 019°07'3 2.9
2017-Jan-17 08:33N 59°32' E 019°04'3 2.5
2017-Jan-17 07:34N 59°31' E 019°00'3 2.9
2017-Jan-17 06:33N 59°28' E 018°60'2210.5
2017-Jan-17 04:27N 59°10' E 018°34'10 0.5
2017-Jan-16 09:17N 59°18' E 018°45'6 8.1
2017-Jan-16 08:33N 59°22' E 018°37'5 5.3
2017-Jan-16 07:33N 59°23' E 018°27'9 8.7
2017-Jan-16 06:34N 59°20' E 018°11'3 2.5
2017-Jan-16 05:33N 59°19' E 018°06'0 0.0
2017-Jan-16 04:33N 59°19' E 018°06'0 0.0
2017-Jan-16 03:33N 59°19' E 018°06'0 0.0
2017-Jan-16 02:33N 59°19' E 018°06'0 0.0
2017-Jan-16 01:33N 59°19' E 018°06'0 0.0
2017-Jan-16 00:33N 59°19' E 018°06'0 0.0
2017-Jan-15 23:33N 59°19' E 018°06'0 0.0
2017-Jan-15 22:33N 59°19' E 018°06'0 0.0
2017-Jan-15 21:30N 59°19' E 018°06'0 0.0
2017-Jan-15 20:32N 59°19' E 018°06'0 0.0
2017-Jan-15 19:32N 59°19' E 018°06'0 0.0
2017-Jan-15 18:32N 59°19' E 018°06'0 0.0
2017-Jan-15 16:20N 59°19' E 018°06'0 0.0
2017-Jan-15 15:29N 59°19' E 018°06'0 0.0
2017-Jan-15 14:32N 59°19' E 018°06'0 0.0
2017-Jan-15 13:32N 59°19' E 018°06'0 0.0
2017-Jan-15 12:32N 59°19' E 018°06'0 0.0
2017-Jan-15 11:32N 59°19' E 018°06'0 0.0
2017-Jan-15 10:32N 59°19' E 018°06'0 0.0
2017-Jan-15 09:32N 59°19' E 018°06'0 0.0
2017-Jan-15 08:32N 59°19' E 018°06'0 0.0
2017-Jan-15 07:32N 59°19' E 018°06'0 0.0
2017-Jan-15 06:29N 59°19' E 018°06'0 0.0
2017-Jan-15 05:29N 59°19' E 018°06'0 0.0
2017-Jan-15 04:32N 59°19' E 018°06'0 0.0
2017-Jan-15 03:32N 59°19' E 018°06'0 0.0
2017-Jan-15 02:32N 59°19' E 018°06'0 0.0
2017-Jan-15 01:32N 59°19' E 018°06'0 0.0
2017-Jan-15 00:32N 59°19' E 018°06'0 0.0
2017-Jan-14 23:32N 59°19' E 018°06'0 0.0
2017-Jan-14 22:32N 59°19' E 018°06'0 0.0
2017-Jan-14 21:32N 59°19' E 018°06'0 0.0
2017-Jan-14 20:32N 59°19' E 018°06'0 0.0
2017-Jan-14 19:32N 59°19' E 018°06'0 0.0
2017-Jan-14 16:23N 59°19' E 018°06'0 0.0
2017-Jan-14 15:32N 59°19' E 018°06'0 0.0
2017-Jan-14 14:32N 59°19' E 018°06'0 0.0
2017-Jan-14 13:32N 59°19' E 018°06'0 0.0
2017-Jan-14 12:32N 59°19' E 018°06'0 0.0
2017-Jan-14 11:32N 59°19' E 018°06'0 0.0
2017-Jan-14 10:32N 59°19' E 018°06'0 0.0
2017-Jan-14 09:32N 59°19' E 018°06'0 0.0
2017-Jan-14 08:32N 59°19' E 018°06'0 0.0
2017-Jan-14 07:32N 59°19' E 018°06'0 0.0
2017-Jan-14 06:32N 59°19' E 018°06'0 0.0
2017-Jan-14 05:32N 59°19' E 018°06'0 0.0
2017-Jan-14 04:32N 59°19' E 018°06'0 0.0
2017-Jan-14 03:32N 59°19' E 018°06'0 0.0
2017-Jan-13 23:32N 59°19' E 018°06'0 0.0
2017-Jan-13 22:32N 59°19' E 018°06'0 0.0
2017-Jan-13 21:32N 59°19' E 018°06'0 0.0
2017-Jan-13 20:29N 59°19' E 018°06'0 0.0
2017-Jan-13 19:17N 59°19' E 018°06'0 0.0
2017-Jan-13 18:26N 59°19' E 018°06'0 0.0
2017-Jan-13 17:26N 59°19' E 018°06'0 0.0
2017-Jan-13 16:14N 59°19' E 018°06'0 0.0
2017-Jan-13 15:29N 59°19' E 018°06'0 0.0
2017-Jan-13 14:32N 59°19' E 018°06'0 0.0
2017-Jan-13 13:32N 59°19' E 018°06'0 0.0
2017-Jan-13 12:32N 59°19' E 018°06'0 0.0
2017-Jan-13 11:32N 59°19' E 018°06'0 0.0
2017-Jan-13 10:32N 59°19' E 018°06'0 0.0
2017-Jan-13 09:32N 59°19' E 018°06'0 0.0
2017-Jan-13 08:29N 59°19' E 018°06'0 0.0
2017-Jan-13 07:32N 59°19' E 018°06'0 0.0
2017-Jan-13 06:29N 59°19' E 018°06'0 0.0
2017-Jan-13 05:29N 59°19' E 018°06'0 0.0
2017-Jan-13 04:29N 59°19' E 018°06'0 0.0
2017-Jan-13 03:32N 59°19' E 018°06'0 0.0
2017-Jan-13 02:32N 59°19' E 018°06'0 0.0
2017-Jan-13 01:32N 59°19' E 018°06'0 0.0
2017-Jan-13 00:32N 59°19' E 018°06'0 0.0
2017-Jan-12 23:32N 59°19' E 018°06'0 0.0
2017-Jan-12 22:32N 59°19' E 018°06'0 0.0
2017-Jan-12 21:32N 59°19' E 018°06'0 0.0
2017-Jan-12 20:32N 59°19' E 018°06'0 0.0
2017-Jan-12 19:32N 59°19' E 018°06'0 0.0
2017-Jan-12 16:05N 59°19' E 018°06'0 0.0
2017-Jan-12 15:32N 59°19' E 018°06'0 0.0
2017-Jan-12 14:29N 59°19' E 018°06'0 0.0
2017-Jan-12 13:32N 59°19' E 018°06'0 0.0
2017-Jan-12 12:32N 59°19' E 018°06'0 0.0
2017-Jan-12 11:32N 59°19' E 018°06'0 0.0
2017-Jan-12 10:32N 59°19' E 018°06'0 0.0
2017-Jan-12 09:32N 59°19' E 018°06'0 0.0
2017-Jan-12 08:29N 59°19' E 018°06'0 0.0
2017-Jan-12 07:29N 59°19' E 018°06'0 0.0
2017-Jan-12 06:32N 59°19' E 018°06'0 0.0
2017-Jan-12 05:32N 59°19' E 018°06'0 0.0
2017-Jan-12 04:32N 59°19' E 018°06'0 0.0
2017-Jan-12 03:32N 59°19' E 018°06'0 0.0
2017-Jan-12 02:32N 59°19' E 018°06'0 0.0
2017-Jan-12 01:32N 59°19' E 018°06'0 0.0
2017-Jan-12 00:32N 59°19' E 018°06'0 0.0
2017-Jan-11 23:32N 59°19' E 018°06'0 0.0
2017-Jan-11 22:31N 59°19' E 018°06'0 0.0
2017-Jan-11 21:31N 59°19' E 018°06'0 0.0
2017-Jan-11 20:31N 59°19' E 018°06'0 0.0
2017-Jan-11 19:31N 59°19' E 018°06'0 0.0
2017-Jan-11 16:31N 59°19' E 018°06'0 0.0
2017-Jan-11 15:31N 59°19' E 018°06'0 0.0
2017-Jan-11 14:31N 59°19' E 018°06'0 0.0
2017-Jan-11 13:31N 59°19' E 018°06'0 0.0
2017-Jan-11 12:22N 59°19' E 018°06'0 0.0
2017-Jan-11 11:31N 59°19' E 018°06'0 0.0
2017-Jan-11 10:31N 59°19' E 018°06'0 0.0
2017-Jan-11 09:31N 59°19' E 018°06'0 0.0
2017-Jan-11 08:28N 59°19' E 018°06'0 0.0
2017-Jan-11 07:31N 59°19' E 018°06'0 0.0
2017-Jan-11 06:31N 59°19' E 018°06'0 0.0
2017-Jan-11 05:31N 59°19' E 018°06'0 0.0
2017-Jan-11 04:28N 59°19' E 018°06'0 0.0
2017-Jan-11 03:31N 59°19' E 018°06'0 0.0
2017-Jan-11 02:28N 59°19' E 018°06'0 0.0
2017-Jan-11 01:28N 59°19' E 018°06'0 0.0
2017-Jan-11 00:31N 59°19' E 018°06'0 0.0
2017-Jan-10 23:31N 59°19' E 018°06'0 0.0
2017-Jan-10 22:31N 59°19' E 018°06'0 0.0
2017-Jan-10 21:31N 59°19' E 018°06'0 0.0
2017-Jan-10 20:31N 59°19' E 018°06'0 0.0
2017-Jan-10 19:31N 59°19' E 018°06'0 0.0
2017-Jan-10 17:28N 59°19' E 018°06'0 0.0
2017-Jan-10 16:13N 59°19' E 018°06'0 0.0
2017-Jan-10 15:31N 59°19' E 018°06'0 0.0
2017-Jan-10 14:31N 59°19' E 018°06'0 0.0
2017-Jan-10 13:28N 59°19' E 018°06'0 0.0
2017-Jan-10 12:31N 59°19' E 018°06'0 0.0
2017-Jan-10 11:31N 59°19' E 018°06'0 0.0
2017-Jan-10 10:31N 59°19' E 018°06'0 0.0
2017-Jan-10 09:31N 59°19' E 018°06'0 0.0
2017-Jan-10 08:31N 59°19' E 018°06'0 0.0
2017-Jan-10 07:31N 59°19' E 018°06'0 0.0
2017-Jan-10 06:31N 59°19' E 018°06'0 0.0
2017-Jan-10 05:31N 59°19' E 018°06'0 0.0
2017-Jan-10 04:31N 59°19' E 018°06'0 0.0
2017-Jan-10 03:28N 59°19' E 018°06'0 0.0
2017-Jan-10 02:31N 59°19' E 018°06'0 0.0
2017-Jan-10 01:31N 59°19' E 018°06'0 0.0
2017-Jan-10 00:31N 59°19' E 018°06'0 0.0
2017-Jan-09 23:31N 59°19' E 018°06'0 0.0
2017-Jan-09 22:31N 59°19' E 018°06'0 0.0
2017-Jan-09 21:31N 59°19' E 018°06'0 0.0
2017-Jan-09 20:31N 59°19' E 018°06'0 0.0
2017-Jan-09 19:31N 59°19' E 018°06'0 0.0
2017-Jan-09 15:28N 59°19' E 018°06'0 0.0
2017-Jan-09 14:31N 59°19' E 018°06'0 0.0
2017-Jan-09 13:31N 59°19' E 018°06'0 0.0
2017-Jan-09 12:31N 59°19' E 018°06'0 0.0
2017-Jan-09 11:31N 59°19' E 018°06'0 0.0
2017-Jan-09 10:31N 59°19' E 018°06'0 0.0
2017-Jan-09 09:31N 59°19' E 018°06'0 0.0
2017-Jan-09 08:31N 59°19' E 018°06'0 0.0
2017-Jan-09 07:28N 59°19' E 018°06'0 0.0
2017-Jan-09 06:31N 59°19' E 018°06'0 0.0
2017-Jan-09 05:31N 59°19' E 018°06'0 0.0
2017-Jan-09 04:31N 59°19' E 018°06'0 0.0
2017-Jan-09 03:31N 59°19' E 018°06'0 0.0
2017-Jan-09 02:31N 59°19' E 018°06'0 0.0
2017-Jan-09 01:31N 59°19' E 018°06'0 0.0
2017-Jan-09 00:31N 59°19' E 018°06'0 0.0
2017-Jan-08 23:31N 59°19' E 018°06'0 0.0
2017-Jan-08 22:31N 59°19' E 018°06'0 0.0
2017-Jan-08 21:31N 59°19' E 018°06'0 0.0
2017-Jan-08 20:31N 59°19' E 018°06'0 0.0
2017-Jan-08 19:31N 59°19' E 018°06'0 0.0
2017-Jan-08 16:04N 59°19' E 018°06'0 0.0
2017-Jan-08 15:28N 59°19' E 018°06'0 0.0
2017-Jan-08 14:28N 59°19' E 018°06'0 0.0
2017-Jan-08 13:31N 59°19' E 018°06'  

Dump ship's entire track history